sensor_id;sensor_type;location;lat;lon;timestamp;P1;durP1;ratioP1;P2;durP2;ratioP2
25073;SDS011;13066;52.042;5.648;2023-07-29T00:00:52;3.55;;;2.95;;
25073;SDS011;13066;52.042;5.648;2023-07-29T00:03:22;5.70;;;3.10;;
25073;SDS011;13066;52.042;5.648;2023-07-29T00:05:52;5.43;;;3.10;;
25073;SDS011;13066;52.042;5.648;2023-07-29T00:08:20;5.57;;;2.83;;
25073;SDS011;13066;52.042;5.648;2023-07-29T00:10:48;3.45;;;2.53;;
25073;SDS011;13066;52.042;5.648;2023-07-29T00:13:16;3.65;;;2.90;;
25073;SDS011;13066;52.042;5.648;2023-07-29T00:15:47;4.70;;;2.65;;
25073;SDS011;13066;52.042;5.648;2023-07-29T00:18:15;5.40;;;2.90;;
25073;SDS011;13066;52.042;5.648;2023-07-29T00:20:44;4.85;;;2.90;;
25073;SDS011;13066;52.042;5.648;2023-07-29T00:23:13;3.92;;;2.50;;
25073;SDS011;13066;52.042;5.648;2023-07-29T00:25:41;4.22;;;2.72;;
25073;SDS011;13066;52.042;5.648;2023-07-29T00:28:09;6.28;;;2.80;;
25073;SDS011;13066;52.042;5.648;2023-07-29T00:30:37;5.20;;;2.60;;
25073;SDS011;13066;52.042;5.648;2023-07-29T00:33:05;4.57;;;2.60;;
25073;SDS011;13066;52.042;5.648;2023-07-29T00:35:33;4.03;;;2.67;;
25073;SDS011;13066;52.042;5.648;2023-07-29T00:38:01;5.70;;;3.13;;
25073;SDS011;13066;52.042;5.648;2023-07-29T00:40:30;3.63;;;2.90;;
25073;SDS011;13066;52.042;5.648;2023-07-29T00:42:58;4.95;;;2.78;;
25073;SDS011;13066;52.042;5.648;2023-07-29T00:45:26;7.18;;;2.53;;
25073;SDS011;13066;52.042;5.648;2023-07-29T00:47:54;6.68;;;2.60;;
25073;SDS011;13066;52.042;5.648;2023-07-29T00:50:22;5.63;;;2.58;;
25073;SDS011;13066;52.042;5.648;2023-07-29T00:52:51;2.60;;;2.30;;
25073;SDS011;13066;52.042;5.648;2023-07-29T00:55:19;6.55;;;3.15;;
25073;SDS011;13066;52.042;5.648;2023-07-29T00:57:48;3.60;;;2.50;;
25073;SDS011;13066;52.042;5.648;2023-07-29T01:00:18;4.45;;;2.80;;
25073;SDS011;13066;52.042;5.648;2023-07-29T01:02:48;3.45;;;3.08;;
25073;SDS011;13066;52.042;5.648;2023-07-29T01:05:16;7.07;;;3.13;;
25073;SDS011;13066;52.042;5.648;2023-07-29T01:07:47;5.97;;;3.88;;
25073;SDS011;13066;52.042;5.648;2023-07-29T01:10:19;7.63;;;3.28;;
25073;SDS011;13066;52.042;5.648;2023-07-29T01:12:56;3.72;;;3.03;;
25073;SDS011;13066;52.042;5.648;2023-07-29T01:15:31;6.70;;;3.53;;
25073;SDS011;13066;52.042;5.648;2023-07-29T01:18:05;9.98;;;3.80;;
25073;SDS011;13066;52.042;5.648;2023-07-29T01:20:37;8.65;;;3.75;;
25073;SDS011;13066;52.042;5.648;2023-07-29T01:23:06;6.28;;;3.90;;
25073;SDS011;13066;52.042;5.648;2023-07-29T01:25:36;7.97;;;3.90;;
25073;SDS011;13066;52.042;5.648;2023-07-29T01:28:04;9.05;;;3.97;;
25073;SDS011;13066;52.042;5.648;2023-07-29T01:30:35;5.40;;;3.88;;
25073;SDS011;13066;52.042;5.648;2023-07-29T01:33:07;7.32;;;4.03;;
25073;SDS011;13066;52.042;5.648;2023-07-29T01:38:12;4.90;;;3.40;;
25073;SDS011;13066;52.042;5.648;2023-07-29T01:40:48;7.30;;;3.85;;
25073;SDS011;13066;52.042;5.648;2023-07-29T01:43:18;8.65;;;3.55;;
25073;SDS011;13066;52.042;5.648;2023-07-29T01:45:52;9.68;;;4.30;;
25073;SDS011;13066;52.042;5.648;2023-07-29T01:48:20;8.48;;;3.63;;
25073;SDS011;13066;52.042;5.648;2023-07-29T01:50:49;9.02;;;4.57;;
25073;SDS011;13066;52.042;5.648;2023-07-29T01:53:17;6.63;;;4.20;;
25073;SDS011;13066;52.042;5.648;2023-07-29T01:55:46;6.45;;;4.18;;
25073;SDS011;13066;52.042;5.648;2023-07-29T01:58:15;7.97;;;4.43;;
25073;SDS011;13066;52.042;5.648;2023-07-29T02:00:46;10.50;;;4.80;;
25073;SDS011;13066;52.042;5.648;2023-07-29T02:03:15;8.45;;;3.97;;
25073;SDS011;13066;52.042;5.648;2023-07-29T02:05:43;9.32;;;4.70;;
25073;SDS011;13066;52.042;5.648;2023-07-29T02:08:11;8.82;;;4.35;;
25073;SDS011;13066;52.042;5.648;2023-07-29T02:10:40;9.82;;;5.20;;
25073;SDS011;13066;52.042;5.648;2023-07-29T02:13:12;8.63;;;4.85;;
25073;SDS011;13066;52.042;5.648;2023-07-29T02:15:41;12.05;;;4.68;;
25073;SDS011;13066;52.042;5.648;2023-07-29T02:18:10;11.60;;;5.40;;
25073;SDS011;13066;52.042;5.648;2023-07-29T02:20:38;7.90;;;5.20;;
25073;SDS011;13066;52.042;5.648;2023-07-29T02:23:06;11.45;;;5.45;;
25073;SDS011;13066;52.042;5.648;2023-07-29T02:25:35;10.75;;;5.90;;
25073;SDS011;13066;52.042;5.648;2023-07-29T02:28:03;13.68;;;6.00;;
25073;SDS011;13066;52.042;5.648;2023-07-29T02:30:31;12.55;;;5.93;;
25073;SDS011;13066;52.042;5.648;2023-07-29T02:33:01;11.27;;;5.88;;
25073;SDS011;13066;52.042;5.648;2023-07-29T02:35:29;11.70;;;5.60;;
25073;SDS011;13066;52.042;5.648;2023-07-29T02:37:58;12.90;;;5.70;;
25073;SDS011;13066;52.042;5.648;2023-07-29T02:40:26;9.68;;;5.20;;
25073;SDS011;13066;52.042;5.648;2023-07-29T02:42:55;10.98;;;5.78;;
25073;SDS011;13066;52.042;5.648;2023-07-29T02:45:24;10.18;;;5.97;;
25073;SDS011;13066;52.042;5.648;2023-07-29T02:47:51;14.15;;;6.72;;
25073;SDS011;13066;52.042;5.648;2023-07-29T02:50:21;12.10;;;6.00;;
25073;SDS011;13066;52.042;5.648;2023-07-29T02:52:49;10.70;;;6.57;;
25073;SDS011;13066;52.042;5.648;2023-07-29T02:55:18;8.13;;;5.68;;
25073;SDS011;13066;52.042;5.648;2023-07-29T02:57:46;14.23;;;6.40;;
25073;SDS011;13066;52.042;5.648;2023-07-29T03:00:14;9.88;;;6.32;;
25073;SDS011;13066;52.042;5.648;2023-07-29T03:02:43;10.38;;;5.80;;
25073;SDS011;13066;52.042;5.648;2023-07-29T03:05:11;12.27;;;6.25;;
25073;SDS011;13066;52.042;5.648;2023-07-29T03:07:41;10.63;;;6.72;;
25073;SDS011;13066;52.042;5.648;2023-07-29T03:10:09;12.07;;;6.55;;
25073;SDS011;13066;52.042;5.648;2023-07-29T03:12:38;10.52;;;5.28;;
25073;SDS011;13066;52.042;5.648;2023-07-29T03:15:06;11.75;;;5.70;;
25073;SDS011;13066;52.042;5.648;2023-07-29T03:17:35;8.60;;;5.40;;
25073;SDS011;13066;52.042;5.648;2023-07-29T03:20:04;10.43;;;5.85;;
25073;SDS011;13066;52.042;5.648;2023-07-29T03:22:33;8.45;;;5.18;;
25073;SDS011;13066;52.042;5.648;2023-07-29T03:25:02;8.90;;;5.03;;
25073;SDS011;13066;52.042;5.648;2023-07-29T03:27:32;11.32;;;5.38;;
25073;SDS011;13066;52.042;5.648;2023-07-29T03:30:03;9.52;;;5.35;;
25073;SDS011;13066;52.042;5.648;2023-07-29T03:32:32;9.93;;;5.05;;
25073;SDS011;13066;52.042;5.648;2023-07-29T03:35:00;7.45;;;5.00;;
25073;SDS011;13066;52.042;5.648;2023-07-29T03:37:29;9.05;;;5.00;;
25073;SDS011;13066;52.042;5.648;2023-07-29T03:39:56;9.00;;;5.25;;
25073;SDS011;13066;52.042;5.648;2023-07-29T03:42:29;9.80;;;5.43;;
25073;SDS011;13066;52.042;5.648;2023-07-29T03:44:59;7.05;;;4.40;;
25073;SDS011;13066;52.042;5.648;2023-07-29T03:47:27;13.98;;;5.03;;
25073;SDS011;13066;52.042;5.648;2023-07-29T03:49:59;8.85;;;5.10;;
25073;SDS011;13066;52.042;5.648;2023-07-29T03:52:27;9.25;;;4.70;;
25073;SDS011;13066;52.042;5.648;2023-07-29T03:54:55;7.03;;;4.80;;
25073;SDS011;13066;52.042;5.648;2023-07-29T03:57:23;6.70;;;4.70;;
25073;SDS011;13066;52.042;5.648;2023-07-29T03:59:53;8.02;;;4.72;;
25073;SDS011;13066;52.042;5.648;2023-07-29T04:02:21;7.05;;;4.03;;
25073;SDS011;13066;52.042;5.648;2023-07-29T04:04:49;9.68;;;4.68;;
25073;SDS011;13066;52.042;5.648;2023-07-29T04:07:17;6.72;;;4.47;;
25073;SDS011;13066;52.042;5.648;2023-07-29T04:09:45;5.43;;;4.13;;
25073;SDS011;13066;52.042;5.648;2023-07-29T04:12:13;6.68;;;3.97;;
25073;SDS011;13066;52.042;5.648;2023-07-29T04:14:41;9.40;;;4.10;;
25073;SDS011;13066;52.042;5.648;2023-07-29T04:17:11;10.00;;;4.75;;
25073;SDS011;13066;52.042;5.648;2023-07-29T04:19:39;8.82;;;4.25;;
25073;SDS011;13066;52.042;5.648;2023-07-29T04:22:07;9.45;;;4.38;;
25073;SDS011;13066;52.042;5.648;2023-07-29T04:24:35;10.50;;;3.80;;
25073;SDS011;13066;52.042;5.648;2023-07-29T04:27:03;10.32;;;5.13;;
25073;SDS011;13066;52.042;5.648;2023-07-29T04:29:32;8.10;;;4.70;;
25073;SDS011;13066;52.042;5.648;2023-07-29T04:32:02;10.63;;;4.40;;
25073;SDS011;13066;52.042;5.648;2023-07-29T04:34:33;7.38;;;4.50;;
25073;SDS011;13066;52.042;5.648;2023-07-29T04:37:01;7.63;;;4.00;;
25073;SDS011;13066;52.042;5.648;2023-07-29T04:39:29;7.68;;;4.45;;
25073;SDS011;13066;52.042;5.648;2023-07-29T04:41:57;8.30;;;4.80;;
25073;SDS011;13066;52.042;5.648;2023-07-29T04:44:27;10.07;;;4.47;;
25073;SDS011;13066;52.042;5.648;2023-07-29T04:46:55;7.85;;;4.00;;
25073;SDS011;13066;52.042;5.648;2023-07-29T04:49:23;9.27;;;4.15;;
25073;SDS011;13066;52.042;5.648;2023-07-29T04:51:53;6.82;;;3.83;;
25073;SDS011;13066;52.042;5.648;2023-07-29T04:54:21;5.93;;;3.85;;
25073;SDS011;13066;52.042;5.648;2023-07-29T04:56:50;6.80;;;4.03;;
25073;SDS011;13066;52.042;5.648;2023-07-29T04:59:18;10.10;;;3.92;;
25073;SDS011;13066;52.042;5.648;2023-07-29T05:01:46;8.25;;;3.67;;
25073;SDS011;13066;52.042;5.648;2023-07-29T05:04:20;7.05;;;3.40;;
25073;SDS011;13066;52.042;5.648;2023-07-29T05:06:48;11.07;;;3.30;;
25073;SDS011;13066;52.042;5.648;2023-07-29T05:09:19;8.75;;;3.58;;
25073;SDS011;13066;52.042;5.648;2023-07-29T05:11:47;4.78;;;3.20;;
25073;SDS011;13066;52.042;5.648;2023-07-29T05:14:16;7.88;;;3.60;;
25073;SDS011;13066;52.042;5.648;2023-07-29T05:16:45;6.80;;;3.28;;
25073;SDS011;13066;52.042;5.648;2023-07-29T05:19:13;7.63;;;3.40;;
25073;SDS011;13066;52.042;5.648;2023-07-29T05:21:41;6.57;;;3.38;;
25073;SDS011;13066;52.042;5.648;2023-07-29T05:24:09;9.23;;;3.65;;
25073;SDS011;13066;52.042;5.648;2023-07-29T05:26:39;5.95;;;3.58;;
25073;SDS011;13066;52.042;5.648;2023-07-29T05:29:07;4.95;;;3.28;;
25073;SDS011;13066;52.042;5.648;2023-07-29T05:31:35;4.93;;;3.55;;
25073;SDS011;13066;52.042;5.648;2023-07-29T05:34:03;5.38;;;3.72;;
25073;SDS011;13066;52.042;5.648;2023-07-29T05:36:31;5.20;;;3.13;;
25073;SDS011;13066;52.042;5.648;2023-07-29T05:39:00;5.57;;;3.72;;
25073;SDS011;13066;52.042;5.648;2023-07-29T05:41:28;6.78;;;3.60;;
25073;SDS011;13066;52.042;5.648;2023-07-29T05:43:58;5.32;;;3.70;;
25073;SDS011;13066;52.042;5.648;2023-07-29T05:46:26;8.15;;;4.00;;
25073;SDS011;13066;52.042;5.648;2023-07-29T05:48:54;7.95;;;4.50;;
25073;SDS011;13066;52.042;5.648;2023-07-29T05:51:22;10.35;;;4.10;;
25073;SDS011;13066;52.042;5.648;2023-07-29T05:53:51;6.72;;;3.90;;
25073;SDS011;13066;52.042;5.648;2023-07-29T05:56:19;8.93;;;3.80;;
25073;SDS011;13066;52.042;5.648;2023-07-29T05:58:47;7.95;;;4.40;;
25073;SDS011;13066;52.042;5.648;2023-07-29T06:01:18;9.48;;;4.40;;
25073;SDS011;13066;52.042;5.648;2023-07-29T06:03:48;7.32;;;4.32;;
25073;SDS011;13066;52.042;5.648;2023-07-29T06:06:16;10.70;;;5.00;;
25073;SDS011;13066;52.042;5.648;2023-07-29T06:08:44;6.85;;;4.60;;
25073;SDS011;13066;52.042;5.648;2023-07-29T06:11:12;7.78;;;4.45;;
25073;SDS011;13066;52.042;5.648;2023-07-29T06:13:40;8.40;;;4.65;;
25073;SDS011;13066;52.042;5.648;2023-07-29T06:16:09;10.30;;;5.60;;
25073;SDS011;13066;52.042;5.648;2023-07-29T06:18:39;7.00;;;4.40;;
25073;SDS011;13066;52.042;5.648;2023-07-29T06:21:08;8.23;;;4.45;;
25073;SDS011;13066;52.042;5.648;2023-07-29T06:23:39;6.55;;;5.07;;
25073;SDS011;13066;52.042;5.648;2023-07-29T06:26:07;6.25;;;4.18;;
25073;SDS011;13066;52.042;5.648;2023-07-29T06:28:35;8.40;;;5.18;;
25073;SDS011;13066;52.042;5.648;2023-07-29T06:31:03;8.27;;;5.00;;
25073;SDS011;13066;52.042;5.648;2023-07-29T06:33:31;10.02;;;5.25;;
25073;SDS011;13066;52.042;5.648;2023-07-29T06:36:01;9.93;;;4.93;;
25073;SDS011;13066;52.042;5.648;2023-07-29T06:38:29;7.88;;;4.75;;
25073;SDS011;13066;52.042;5.648;2023-07-29T06:40:58;9.55;;;4.95;;
25073;SDS011;13066;52.042;5.648;2023-07-29T06:43:26;7.22;;;4.80;;
25073;SDS011;13066;52.042;5.648;2023-07-29T06:45:54;8.20;;;4.85;;
25073;SDS011;13066;52.042;5.648;2023-07-29T06:48:22;7.93;;;5.35;;
25073;SDS011;13066;52.042;5.648;2023-07-29T06:50:50;7.55;;;5.13;;
25073;SDS011;13066;52.042;5.648;2023-07-29T06:53:20;6.05;;;4.72;;
25073;SDS011;13066;52.042;5.648;2023-07-29T06:55:48;8.23;;;5.07;;
25073;SDS011;13066;52.042;5.648;2023-07-29T06:58:16;7.15;;;4.78;;
25073;SDS011;13066;52.042;5.648;2023-07-29T07:00:44;6.82;;;4.55;;
25073;SDS011;13066;52.042;5.648;2023-07-29T07:03:12;13.10;;;4.85;;
25073;SDS011;13066;52.042;5.648;2023-07-29T07:05:41;7.53;;;5.30;;
25073;SDS011;13066;52.042;5.648;2023-07-29T07:08:09;9.38;;;4.88;;
25073;SDS011;13066;52.042;5.648;2023-07-29T07:10:41;8.38;;;5.40;;
25073;SDS011;13066;52.042;5.648;2023-07-29T07:13:10;7.78;;;4.80;;
25073;SDS011;13066;52.042;5.648;2023-07-29T07:15:38;8.75;;;4.70;;
25073;SDS011;13066;52.042;5.648;2023-07-29T07:18:09;10.18;;;5.03;;
25073;SDS011;13066;52.042;5.648;2023-07-29T07:20:37;12.60;;;5.00;;
25073;SDS011;13066;52.042;5.648;2023-07-29T07:23:05;8.32;;;4.93;;
25073;SDS011;13066;52.042;5.648;2023-07-29T07:25:37;6.57;;;5.00;;
25073;SDS011;13066;52.042;5.648;2023-07-29T07:28:07;10.88;;;4.60;;
25073;SDS011;13066;52.042;5.648;2023-07-29T07:30:35;6.43;;;4.43;;
25073;SDS011;13066;52.042;5.648;2023-07-29T07:33:07;8.70;;;4.97;;
25073;SDS011;13066;52.042;5.648;2023-07-29T07:35:35;7.53;;;4.25;;
25073;SDS011;13066;52.042;5.648;2023-07-29T07:38:03;9.07;;;4.95;;
25073;SDS011;13066;52.042;5.648;2023-07-29T07:40:36;8.45;;;4.72;;
25073;SDS011;13066;52.042;5.648;2023-07-29T07:43:05;9.25;;;5.10;;
25073;SDS011;13066;52.042;5.648;2023-07-29T07:45:34;6.30;;;4.40;;
25073;SDS011;13066;52.042;5.648;2023-07-29T07:48:04;6.53;;;4.55;;
25073;SDS011;13066;52.042;5.648;2023-07-29T07:50:32;5.95;;;4.38;;
25073;SDS011;13066;52.042;5.648;2023-07-29T07:53:00;10.05;;;4.55;;
25073;SDS011;13066;52.042;5.648;2023-07-29T07:55:32;7.50;;;4.80;;
25073;SDS011;13066;52.042;5.648;2023-07-29T07:58:00;10.63;;;4.32;;
25073;SDS011;13066;52.042;5.648;2023-07-29T08:00:33;7.28;;;4.63;;
25073;SDS011;13066;52.042;5.648;2023-07-29T08:03:01;10.02;;;5.00;;
25073;SDS011;13066;52.042;5.648;2023-07-29T08:05:30;11.40;;;4.80;;
25073;SDS011;13066;52.042;5.648;2023-07-29T08:07:59;8.85;;;4.43;;
25073;SDS011;13066;52.042;5.648;2023-07-29T08:10:27;9.50;;;4.75;;
25073;SDS011;13066;52.042;5.648;2023-07-29T08:12:55;6.35;;;4.00;;
25073;SDS011;13066;52.042;5.648;2023-07-29T08:15:24;9.30;;;4.07;;
25073;SDS011;13066;52.042;5.648;2023-07-29T08:17:54;6.15;;;3.80;;
25073;SDS011;13066;52.042;5.648;2023-07-29T08:20:25;4.93;;;3.60;;
25073;SDS011;13066;52.042;5.648;2023-07-29T08:22:53;7.43;;;4.35;;
25073;SDS011;13066;52.042;5.648;2023-07-29T08:25:21;6.70;;;3.70;;
25073;SDS011;13066;52.042;5.648;2023-07-29T08:27:49;9.45;;;4.03;;
25073;SDS011;13066;52.042;5.648;2023-07-29T08:30:18;7.78;;;3.35;;
25073;SDS011;13066;52.042;5.648;2023-07-29T08:32:46;8.32;;;3.63;;
25073;SDS011;13066;52.042;5.648;2023-07-29T08:35:16;4.82;;;3.30;;
25073;SDS011;13066;52.042;5.648;2023-07-29T08:37:44;4.47;;;3.40;;
25073;SDS011;13066;52.042;5.648;2023-07-29T08:40:12;6.65;;;3.67;;
25073;SDS011;13066;52.042;5.648;2023-07-29T08:42:41;6.32;;;3.33;;
25073;SDS011;13066;52.042;5.648;2023-07-29T08:45:12;9.98;;;2.67;;
25073;SDS011;13066;52.042;5.648;2023-07-29T08:47:41;7.00;;;2.60;;
25073;SDS011;13066;52.042;5.648;2023-07-29T08:50:09;8.68;;;2.72;;
25073;SDS011;13066;52.042;5.648;2023-07-29T08:52:42;8.57;;;2.85;;
25073;SDS011;13066;52.042;5.648;2023-07-29T08:55:10;9.50;;;2.53;;
25073;SDS011;13066;52.042;5.648;2023-07-29T08:57:39;3.83;;;2.47;;
25073;SDS011;13066;52.042;5.648;2023-07-29T09:00:07;6.55;;;2.50;;
25073;SDS011;13066;52.042;5.648;2023-07-29T09:02:36;8.55;;;2.65;;
25073;SDS011;13066;52.042;5.648;2023-07-29T09:05:05;4.40;;;3.10;;
25073;SDS011;13066;52.042;5.648;2023-07-29T09:07:34;6.97;;;2.80;;
25073;SDS011;13066;52.042;5.648;2023-07-29T09:10:08;5.68;;;2.53;;
25073;SDS011;13066;52.042;5.648;2023-07-29T09:12:37;4.28;;;3.15;;
25073;SDS011;13066;52.042;5.648;2023-07-29T09:15:05;2.90;;;2.53;;
25073;SDS011;13066;52.042;5.648;2023-07-29T09:17:34;3.83;;;2.60;;
25073;SDS011;13066;52.042;5.648;2023-07-29T09:20:03;8.13;;;3.40;;
25073;SDS011;13066;52.042;5.648;2023-07-29T09:22:31;5.03;;;3.10;;
25073;SDS011;13066;52.042;5.648;2023-07-29T09:24:59;5.90;;;2.75;;
25073;SDS011;13066;52.042;5.648;2023-07-29T09:27:29;8.90;;;3.30;;
25073;SDS011;13066;52.042;5.648;2023-07-29T09:29:59;3.40;;;3.00;;
25073;SDS011;13066;52.042;5.648;2023-07-29T09:32:27;7.03;;;2.85;;
25073;SDS011;13066;52.042;5.648;2023-07-29T09:34:55;5.47;;;3.20;;
25073;SDS011;13066;52.042;5.648;2023-07-29T09:37:23;4.95;;;2.33;;
25073;SDS011;13066;52.042;5.648;2023-07-29T09:39:52;5.25;;;2.67;;
25073;SDS011;13066;52.042;5.648;2023-07-29T09:42:21;3.25;;;2.35;;
25073;SDS011;13066;52.042;5.648;2023-07-29T09:44:50;4.40;;;2.30;;
25073;SDS011;13066;52.042;5.648;2023-07-29T09:47:20;5.97;;;2.83;;
25073;SDS011;13066;52.042;5.648;2023-07-29T09:49:49;5.80;;;2.47;;
25073;SDS011;13066;52.042;5.648;2023-07-29T09:52:17;3.70;;;2.22;;
25073;SDS011;13066;52.042;5.648;2023-07-29T09:54:46;4.57;;;2.25;;
25073;SDS011;13066;52.042;5.648;2023-07-29T09:57:16;4.20;;;1.90;;
25073;SDS011;13066;52.042;5.648;2023-07-29T09:59:54;3.78;;;2.20;;
25073;SDS011;13066;52.042;5.648;2023-07-29T10:02:22;2.72;;;2.08;;
25073;SDS011;13066;52.042;5.648;2023-07-29T10:04:55;3.58;;;2.00;;
25073;SDS011;13066;52.042;5.648;2023-07-29T10:07:24;3.17;;;1.92;;
25073;SDS011;13066;52.042;5.648;2023-07-29T10:09:52;3.10;;;2.20;;
25073;SDS011;13066;52.042;5.648;2023-07-29T10:12:20;3.90;;;2.28;;
25073;SDS011;13066;52.042;5.648;2023-07-29T10:14:50;3.05;;;2.20;;
25073;SDS011;13066;52.042;5.648;2023-07-29T10:17:19;4.97;;;2.20;;
25073;SDS011;13066;52.042;5.648;2023-07-29T10:19:48;3.58;;;2.10;;
25073;SDS011;13066;52.042;5.648;2023-07-29T10:22:17;6.18;;;2.22;;
25073;SDS011;13066;52.042;5.648;2023-07-29T10:24:48;2.67;;;2.17;;
25073;SDS011;13066;52.042;5.648;2023-07-29T10:27:17;3.28;;;2.17;;
25073;SDS011;13066;52.042;5.648;2023-07-29T10:29:48;3.22;;;2.38;;
25073;SDS011;13066;52.042;5.648;2023-07-29T10:32:17;3.63;;;2.30;;
25073;SDS011;13066;52.042;5.648;2023-07-29T10:34:49;6.20;;;2.20;;
25073;SDS011;13066;52.042;5.648;2023-07-29T10:37:22;2.80;;;1.80;;
25073;SDS011;13066;52.042;5.648;2023-07-29T10:39:52;4.78;;;2.25;;
25073;SDS011;13066;52.042;5.648;2023-07-29T10:42:21;3.25;;;2.35;;
25073;SDS011;13066;52.042;5.648;2023-07-29T10:44:50;3.25;;;1.95;;
25073;SDS011;13066;52.042;5.648;2023-07-29T10:47:21;4.63;;;2.00;;
25073;SDS011;13066;52.042;5.648;2023-07-29T10:49:52;5.60;;;2.60;;
25073;SDS011;13066;52.042;5.648;2023-07-29T10:52:31;5.43;;;2.22;;
25073;SDS011;13066;52.042;5.648;2023-07-29T10:55:22;5.38;;;2.38;;
25073;SDS011;13066;52.042;5.648;2023-07-29T10:57:53;3.47;;;2.10;;
25073;SDS011;13066;52.042;5.648;2023-07-29T11:00:33;4.78;;;2.65;;
25073;SDS011;13066;52.042;5.648;2023-07-29T11:03:03;3.97;;;2.38;;
25073;SDS011;13066;52.042;5.648;2023-07-29T11:05:43;3.47;;;2.45;;
25073;SDS011;13066;52.042;5.648;2023-07-29T11:08:19;3.13;;;2.00;;
25073;SDS011;13066;52.042;5.648;2023-07-29T11:10:58;3.55;;;2.03;;
25073;SDS011;13066;52.042;5.648;2023-07-29T11:13:29;3.80;;;2.05;;
25073;SDS011;13066;52.042;5.648;2023-07-29T11:15:58;3.97;;;2.17;;
25073;SDS011;13066;52.042;5.648;2023-07-29T11:18:30;4.72;;;2.20;;
25073;SDS011;13066;52.042;5.648;2023-07-29T11:20:58;3.05;;;1.70;;
25073;SDS011;13066;52.042;5.648;2023-07-29T11:23:28;2.70;;;2.00;;
25073;SDS011;13066;52.042;5.648;2023-07-29T11:25:57;2.20;;;2.00;;
25073;SDS011;13066;52.042;5.648;2023-07-29T11:28:26;4.47;;;2.10;;
25073;SDS011;13066;52.042;5.648;2023-07-29T11:30:55;3.70;;;2.20;;
25073;SDS011;13066;52.042;5.648;2023-07-29T11:33:24;6.00;;;2.45;;
25073;SDS011;13066;52.042;5.648;2023-07-29T11:35:56;7.10;;;3.13;;
25073;SDS011;13066;52.042;5.648;2023-07-29T11:38:24;4.13;;;2.55;;
25073;SDS011;13066;52.042;5.648;2023-07-29T11:40:56;7.40;;;2.53;;
25073;SDS011;13066;52.042;5.648;2023-07-29T11:43:26;6.50;;;2.90;;
25073;SDS011;13066;52.042;5.648;2023-07-29T11:45:54;3.38;;;2.90;;
25073;SDS011;13066;52.042;5.648;2023-07-29T11:48:30;4.20;;;2.65;;
25073;SDS011;13066;52.042;5.648;2023-07-29T11:51:00;3.22;;;2.60;;
25073;SDS011;13066;52.042;5.648;2023-07-29T11:53:30;4.07;;;2.80;;
25073;SDS011;13066;52.042;5.648;2023-07-29T11:55:58;3.22;;;2.53;;
25073;SDS011;13066;52.042;5.648;2023-07-29T11:58:26;3.25;;;2.30;;
25073;SDS011;13066;52.042;5.648;2023-07-29T12:00:54;6.07;;;3.10;;
25073;SDS011;13066;52.042;5.648;2023-07-29T12:03:23;7.00;;;2.58;;
25073;SDS011;13066;52.042;5.648;2023-07-29T12:05:53;15.90;;;2.97;;
25073;SDS011;13066;52.042;5.648;2023-07-29T12:08:24;5.13;;;2.70;;
25073;SDS011;13066;52.042;5.648;2023-07-29T12:10:52;4.97;;;2.83;;
25073;SDS011;13066;52.042;5.648;2023-07-29T12:13:23;5.20;;;2.80;;
25073;SDS011;13066;52.042;5.648;2023-07-29T12:15:52;4.97;;;2.70;;
25073;SDS011;13066;52.042;5.648;2023-07-29T12:18:29;3.72;;;2.60;;
25073;SDS011;13066;52.042;5.648;2023-07-29T12:20:58;4.30;;;2.88;;
25073;SDS011;13066;52.042;5.648;2023-07-29T12:23:28;5.32;;;2.95;;
25073;SDS011;13066;52.042;5.648;2023-07-29T12:25:56;3.40;;;2.78;;
25073;SDS011;13066;52.042;5.648;2023-07-29T12:28:25;2.92;;;2.50;;
25073;SDS011;13066;52.042;5.648;2023-07-29T12:30:53;4.88;;;2.60;;
25073;SDS011;13066;52.042;5.648;2023-07-29T12:33:40;5.00;;;2.85;;
25073;SDS011;13066;52.042;5.648;2023-07-29T12:36:08;4.57;;;3.05;;
25073;SDS011;13066;52.042;5.648;2023-07-29T12:38:38;4.10;;;2.70;;
25073;SDS011;13066;52.042;5.648;2023-07-29T12:41:06;8.40;;;3.22;;
25073;SDS011;13066;52.042;5.648;2023-07-29T12:43:35;4.05;;;2.25;;
25073;SDS011;13066;52.042;5.648;2023-07-29T12:46:04;6.43;;;2.30;;
25073;SDS011;13066;52.042;5.648;2023-07-29T12:48:32;4.47;;;2.20;;
25073;SDS011;13066;52.042;5.648;2023-07-29T12:51:00;4.70;;;1.98;;
25073;SDS011;13066;52.042;5.648;2023-07-29T12:53:28;2.08;;;1.88;;
25073;SDS011;13066;52.042;5.648;2023-07-29T12:55:58;4.70;;;2.30;;
25073;SDS011;13066;52.042;5.648;2023-07-29T12:58:27;2.15;;;1.88;;
25073;SDS011;13066;52.042;5.648;2023-07-29T13:00:56;4.35;;;1.85;;
25073;SDS011;13066;52.042;5.648;2023-07-29T13:03:23;3.20;;;2.05;;
25073;SDS011;13066;52.042;5.648;2023-07-29T13:05:52;3.28;;;1.90;;
25073;SDS011;13066;52.042;5.648;2023-07-29T13:08:20;2.85;;;1.80;;
25073;SDS011;13066;52.042;5.648;2023-07-29T13:10:49;5.18;;;2.53;;
25073;SDS011;13066;52.042;5.648;2023-07-29T13:13:19;3.92;;;1.95;;
25073;SDS011;13066;52.042;5.648;2023-07-29T13:15:47;3.15;;;2.80;;
25073;SDS011;13066;52.042;5.648;2023-07-29T13:18:16;4.72;;;3.33;;
25073;SDS011;13066;52.042;5.648;2023-07-29T13:20:44;5.45;;;3.45;;
25073;SDS011;13066;52.042;5.648;2023-07-29T13:23:12;4.90;;;2.55;;
25073;SDS011;13066;52.042;5.648;2023-07-29T13:25:40;5.32;;;2.80;;
25073;SDS011;13066;52.042;5.648;2023-07-29T13:28:09;5.97;;;2.58;;
25073;SDS011;13066;52.042;5.648;2023-07-29T13:30:39;5.50;;;3.08;;
25073;SDS011;13066;52.042;5.648;2023-07-29T13:33:07;4.63;;;2.60;;
25073;SDS011;13066;52.042;5.648;2023-07-29T13:35:35;6.78;;;2.72;;
25073;SDS011;13066;52.042;5.648;2023-07-29T13:38:03;5.18;;;3.17;;
25073;SDS011;13066;52.042;5.648;2023-07-29T13:40:31;5.43;;;3.50;;
25073;SDS011;13066;52.042;5.648;2023-07-29T13:43:02;7.70;;;4.47;;
25073;SDS011;13066;52.042;5.648;2023-07-29T13:45:30;6.25;;;4.70;;
25073;SDS011;13066;52.042;5.648;2023-07-29T13:48:00;5.88;;;4.80;;
25073;SDS011;13066;52.042;5.648;2023-07-29T13:50:28;5.15;;;4.63;;
25073;SDS011;13066;52.042;5.648;2023-07-29T13:52:56;5.38;;;4.13;;
25073;SDS011;13066;52.042;5.648;2023-07-29T13:55:24;5.75;;;4.25;;
25073;SDS011;13066;52.042;5.648;2023-07-29T13:57:52;5.50;;;3.92;;
25073;SDS011;13066;52.042;5.648;2023-07-29T14:00:21;5.93;;;4.78;;
25073;SDS011;13066;52.042;5.648;2023-07-29T14:02:49;4.13;;;3.78;;
25073;SDS011;13066;52.042;5.648;2023-07-29T14:05:18;8.93;;;4.22;;
25073;SDS011;13066;52.042;5.648;2023-07-29T14:07:46;6.30;;;4.30;;
25073;SDS011;13066;52.042;5.648;2023-07-29T14:10:15;5.30;;;4.40;;
25073;SDS011;13066;52.042;5.648;2023-07-29T14:12:43;5.53;;;4.20;;
25073;SDS011;13066;52.042;5.648;2023-07-29T14:15:11;4.20;;;3.70;;
25073;SDS011;13066;52.042;5.648;2023-07-29T14:17:39;6.55;;;4.03;;
25073;SDS011;13066;52.042;5.648;2023-07-29T14:20:07;4.55;;;3.83;;
25073;SDS011;13066;52.042;5.648;2023-07-29T14:22:37;7.97;;;3.67;;
25073;SDS011;13066;52.042;5.648;2023-07-29T14:25:06;4.38;;;3.33;;
25073;SDS011;13066;52.042;5.648;2023-07-29T14:27:35;3.70;;;3.20;;
25073;SDS011;13066;52.042;5.648;2023-07-29T14:30:03;5.75;;;3.00;;
25073;SDS011;13066;52.042;5.648;2023-07-29T14:32:32;5.80;;;3.33;;
25073;SDS011;13066;52.042;5.648;2023-07-29T14:35:00;2.92;;;2.65;;
25073;SDS011;13066;52.042;5.648;2023-07-29T14:37:30;5.13;;;2.17;;
25073;SDS011;13066;52.042;5.648;2023-07-29T14:40:00;2.63;;;2.42;;
25073;SDS011;13066;52.042;5.648;2023-07-29T14:42:28;2.60;;;2.40;;
25073;SDS011;13066;52.042;5.648;2023-07-29T14:44:59;2.97;;;2.08;;
25073;SDS011;13066;52.042;5.648;2023-07-29T14:47:27;2.53;;;1.92;;
25073;SDS011;13066;52.042;5.648;2023-07-29T14:49:59;5.57;;;2.30;;
25073;SDS011;13066;52.042;5.648;2023-07-29T14:52:27;3.78;;;2.28;;
25073;SDS011;13066;52.042;5.648;2023-07-29T14:54:55;4.50;;;2.10;;
25073;SDS011;13066;52.042;5.648;2023-07-29T14:57:25;3.50;;;1.92;;
25073;SDS011;13066;52.042;5.648;2023-07-29T14:59:53;7.00;;;2.25;;